This is the latest recevied weather packets stored in our database for station/object WD4IXD-WX. If no packets are shown the sender has not sent any weather packets the latest 10 day(s).
| Time | Temp. | Humidity | Pressure | Rain* | Wind** | Luminosity | Snow |
|---|---|---|---|---|---|---|---|
| 1777426804 | 3.89° C | 35% | 1020.2 hPa | 0 mm | - | 11 W/m² | - |
| 1777426504 | 4.44° C | 35% | 1020.2 hPa | 0 mm | - | 12 W/m² | - |
| 1777426204 | 4.44° C | 34% | 1020 hPa | 0 mm | - | 16 W/m² | - |
| 1777425904 | 5° C | 34% | 1020 hPa | 0 mm | - | 33 W/m² | - |
| 1777425604 | 5° C | 33% | 1020 hPa | 0 mm | - | 47 W/m² | - |
| 1777425304 | 5° C | 33% | 1019.9 hPa | 0 mm | - | 63 W/m² | - |
| 1777425004 | 5° C | 33% | 1019.9 hPa | 0 mm | - | 79 W/m² | - |
| 1777424704 | 5.56° C | 33% | 1019.8 hPa | 0 mm | - | 93 W/m² | - |
| 1777424404 | 5.56° C | 32% | 1019.8 hPa | 0 mm | - | 113 W/m² | - |
| 1777424104 | 5.56° C | 32% | 1019.7 hPa | 0 mm | - | 132 W/m² | - |
| 1777423804 | 6.11° C | 32% | 1019.7 hPa | 0 mm | - | 160 W/m² | - |
| 1777423504 | 6.11° C | 31% | 1019.6 hPa | 0 mm | - | 181 W/m² | - |
| 1777423204 | 6.11° C | 30% | 1019.6 hPa | 0 mm | - | 211 W/m² | - |
| 1777422904 | 6.11° C | 29% | 1019.6 hPa | 0 mm | - | 225 W/m² | - |
| 1777422604 | 6.11° C | 29% | 1019.5 hPa | 0 mm | - | 255 W/m² | - |
| 1777422304 | 6.11° C | 28% | 1019.5 hPa | 0 mm | - | 271 W/m² | - |
| 1777422004 | 6.11° C | 28% | 1019.5 hPa | 0 mm | - | 281 W/m² | - |
| 1777421704 | 6.11° C | 28% | 1019.4 hPa | 0 mm | - | 304 W/m² | - |
| 1777421404 | 6.11° C | 28% | 1019.4 hPa | 0 mm | - | 329 W/m² | - |
| 1777421104 | 6.11° C | 28% | 1019.4 hPa | 0 mm | - | 343 W/m² | - |
| 1777420804 | 6.11° C | 26% | 1019.4 hPa | 0 mm | - | 360 W/m² | - |
| 1777420504 | 6.11° C | 27% | 1019.3 hPa | 0 mm | - | 388 W/m² | - |
| 1777420204 | 7.22° C | 26% | 1019.3 hPa | 0 mm | - | 95 W/m² | - |
| 1777419904 | 6.67° C | 26% | 1019.2 hPa | 0 mm | - | 417 W/m² | - |
| 1777419604 | 6.67° C | 27% | 1019.2 hPa | 0 mm | - | 434 W/m² | - |
* Rain latest hour (hover to see other rain measurements)
** Current wind speed in m/s (hover to see current wind gust speed)